sensor_id;sensor_type;location;lat;lon;timestamp;temperature;humidity
73149;SHT30;61346;48.930;2.266;2022-07-04T00:00:29;19.31;44.76
73149;SHT30;61346;48.930;2.266;2022-07-04T00:02:54;19.31;44.89
73149;SHT30;61346;48.930;2.266;2022-07-04T00:05:20;19.26;44.95
73149;SHT30;61346;48.930;2.266;2022-07-04T00:07:47;19.22;44.97
73149;SHT30;61346;48.930;2.266;2022-07-04T00:10:16;19.17;45.05
73149;SHT30;61346;48.930;2.266;2022-07-04T00:12:42;19.14;44.94
73149;SHT30;61346;48.930;2.266;2022-07-04T00:15:09;19.07;44.93
73149;SHT30;61346;48.930;2.266;2022-07-04T00:17:34;19.03;45.13
73149;SHT30;61346;48.930;2.266;2022-07-04T00:20:00;19.00;45.31
73149;SHT30;61346;48.930;2.266;2022-07-04T00:22:25;19.00;45.26
73149;SHT30;61346;48.930;2.266;2022-07-04T00:24:51;18.94;45.37
73149;SHT30;61346;48.930;2.266;2022-07-04T00:27:16;18.93;45.57
73149;SHT30;61346;48.930;2.266;2022-07-04T00:29:42;18.91;45.75
73149;SHT30;61346;48.930;2.266;2022-07-04T00:32:08;18.88;46.28
73149;SHT30;61346;48.930;2.266;2022-07-04T00:34:33;18.88;47.02
73149;SHT30;61346;48.930;2.266;2022-07-04T00:36:59;18.83;46.73
73149;SHT30;61346;48.930;2.266;2022-07-04T00:39:24;18.81;46.51
73149;SHT30;61346;48.930;2.266;2022-07-04T00:41:50;18.80;46.31
73149;SHT30;61346;48.930;2.266;2022-07-04T00:44:18;18.77;46.41
73149;SHT30;61346;48.930;2.266;2022-07-04T00:46:44;18.76;46.35
73149;SHT30;61346;48.930;2.266;2022-07-04T00:49:11;18.73;46.54
73149;SHT30;61346;48.930;2.266;2022-07-04T00:51:38;18.70;46.57
73149;SHT30;61346;48.930;2.266;2022-07-04T00:54:05;18.64;46.49
73149;SHT30;61346;48.930;2.266;2022-07-04T00:56:31;18.64;46.52
73149;SHT30;61346;48.930;2.266;2022-07-04T00:58:57;18.62;46.63
73149;SHT30;61346;48.930;2.266;2022-07-04T01:01:24;18.59;46.60
73149;SHT30;61346;48.930;2.266;2022-07-04T01:03:50;18.55;46.82
73149;SHT30;61346;48.930;2.266;2022-07-04T01:06:17;18.55;46.67
73149;SHT30;61346;48.930;2.266;2022-07-04T01:08:44;18.50;46.83
73149;SHT30;61346;48.930;2.266;2022-07-04T01:11:11;18.52;46.75
73149;SHT30;61346;48.930;2.266;2022-07-04T01:13:37;18.46;46.90
73149;SHT30;61346;48.930;2.266;2022-07-04T01:16:03;18.45;46.69
73149;SHT30;61346;48.930;2.266;2022-07-04T01:18:30;18.43;46.96
73149;SHT30;61346;48.930;2.266;2022-07-04T01:20:56;18.39;46.81
73149;SHT30;61346;48.930;2.266;2022-07-04T01:23:21;18.39;46.96
73149;SHT30;61346;48.930;2.266;2022-07-04T01:25:47;18.32;47.00
73149;SHT30;61346;48.930;2.266;2022-07-04T01:28:15;18.32;46.86
73149;SHT30;61346;48.930;2.266;2022-07-04T01:30:41;18.29;46.95
73149;SHT30;61346;48.930;2.266;2022-07-04T01:33:06;18.26;46.99
73149;SHT30;61346;48.930;2.266;2022-07-04T01:35:31;18.21;47.09
73149;SHT30;61346;48.930;2.266;2022-07-04T01:37:57;18.19;47.27
73149;SHT30;61346;48.930;2.266;2022-07-04T01:40:22;18.16;47.19
73149;SHT30;61346;48.930;2.266;2022-07-04T01:42:48;18.12;47.25
73149;SHT30;61346;48.930;2.266;2022-07-04T01:45:13;18.08;47.35
73149;SHT30;61346;48.930;2.266;2022-07-04T01:47:39;18.06;47.31
73149;SHT30;61346;48.930;2.266;2022-07-04T01:50:07;18.06;47.44
73149;SHT30;61346;48.930;2.266;2022-07-04T01:52:32;18.04;47.70
73149;SHT30;61346;48.930;2.266;2022-07-04T01:54:58;18.00;47.65
73149;SHT30;61346;48.930;2.266;2022-07-04T01:57:24;17.98;47.79
73149;SHT30;61346;48.930;2.266;2022-07-04T01:59:49;17.95;47.87
73149;SHT30;61346;48.930;2.266;2022-07-04T02:02:33;17.91;47.97
73149;SHT30;61346;48.930;2.266;2022-07-04T02:04:59;17.91;48.01
73149;SHT30;61346;48.930;2.266;2022-07-04T02:07:24;17.90;48.08
73149;SHT30;61346;48.930;2.266;2022-07-04T02:09:50;17.88;48.04
73149;SHT30;61346;48.930;2.266;2022-07-04T02:12:15;17.86;48.30
73149;SHT30;61346;48.930;2.266;2022-07-04T02:15:00;17.81;48.21
73149;SHT30;61346;48.930;2.266;2022-07-04T02:17:25;17.80;48.36
73149;SHT30;61346;48.930;2.266;2022-07-04T02:19:51;17.76;48.42
73149;SHT30;61346;48.930;2.266;2022-07-04T02:22:16;17.76;49.04
73149;SHT30;61346;48.930;2.266;2022-07-04T02:24:42;17.74;49.09
73149;SHT30;61346;48.930;2.266;2022-07-04T02:27:07;17.70;48.89
73149;SHT30;61346;48.930;2.266;2022-07-04T02:29:33;17.70;48.73
73149;SHT30;61346;48.930;2.266;2022-07-04T02:31:59;17.63;48.85
73149;SHT30;61346;48.930;2.266;2022-07-04T02:34:24;17.60;49.03
73149;SHT30;61346;48.930;2.266;2022-07-04T02:36:50;17.59;49.10
73149;SHT30;61346;48.930;2.266;2022-07-04T02:39:16;17.57;49.24
73149;SHT30;61346;48.930;2.266;2022-07-04T02:41:41;17.53;49.32
73149;SHT30;61346;48.930;2.266;2022-07-04T02:44:07;17.53;49.30
73149;SHT30;61346;48.930;2.266;2022-07-04T02:46:32;17.47;49.18
73149;SHT30;61346;48.930;2.266;2022-07-04T02:48:59;17.45;49.45
73149;SHT30;61346;48.930;2.266;2022-07-04T02:51:24;17.43;49.57
73149;SHT30;61346;48.930;2.266;2022-07-04T02:53:50;17.42;49.67
73149;SHT30;61346;48.930;2.266;2022-07-04T02:56:15;17.38;49.72
73149;SHT30;61346;48.930;2.266;2022-07-04T02:58:41;17.35;49.65
73149;SHT30;61346;48.930;2.266;2022-07-04T03:01:06;17.35;49.68
73149;SHT30;61346;48.930;2.266;2022-07-04T03:03:32;17.32;49.86
73149;SHT30;61346;48.930;2.266;2022-07-04T03:05:58;17.31;50.16
73149;SHT30;61346;48.930;2.266;2022-07-04T03:08:23;17.29;50.24
73149;SHT30;61346;48.930;2.266;2022-07-04T03:10:49;17.28;50.29
73149;SHT30;61346;48.930;2.266;2022-07-04T03:13:16;17.23;50.29
73149;SHT30;61346;48.930;2.266;2022-07-04T03:15:41;17.21;50.26
73149;SHT30;61346;48.930;2.266;2022-07-04T03:18:06;17.19;50.47
73149;SHT30;61346;48.930;2.266;2022-07-04T03:20:32;17.18;50.80
73149;SHT30;61346;48.930;2.266;2022-07-04T03:22:57;17.14;50.73
73149;SHT30;61346;48.930;2.266;2022-07-04T03:25:22;17.08;50.93
73149;SHT30;61346;48.930;2.266;2022-07-04T03:27:48;17.07;50.78
73149;SHT30;61346;48.930;2.266;2022-07-04T03:30:13;17.08;50.99
73149;SHT30;61346;48.930;2.266;2022-07-04T03:32:39;17.04;51.00
73149;SHT30;61346;48.930;2.266;2022-07-04T03:35:04;17.01;51.17
73149;SHT30;61346;48.930;2.266;2022-07-04T03:37:30;17.01;51.10
73149;SHT30;61346;48.930;2.266;2022-07-04T03:39:56;16.96;51.20
73149;SHT30;61346;48.930;2.266;2022-07-04T03:42:21;16.94;51.20
73149;SHT30;61346;48.930;2.266;2022-07-04T03:44:46;16.91;51.37
73149;SHT30;61346;48.930;2.266;2022-07-04T03:47:12;16.91;51.45
73149;SHT30;61346;48.930;2.266;2022-07-04T03:49:37;16.92;51.49
73149;SHT30;61346;48.930;2.266;2022-07-04T03:52:03;16.89;51.62
73149;SHT30;61346;48.930;2.266;2022-07-04T03:54:28;16.87;51.68
73149;SHT30;61346;48.930;2.266;2022-07-04T03:56:55;16.85;51.62
73149;SHT30;61346;48.930;2.266;2022-07-04T03:59:20;16.84;51.82
73149;SHT30;61346;48.930;2.266;2022-07-04T04:01:45;16.83;52.14
73149;SHT30;61346;48.930;2.266;2022-07-04T04:04:11;16.80;52.03
73149;SHT30;61346;48.930;2.266;2022-07-04T04:06:55;16.77;51.84
73149;SHT30;61346;48.930;2.266;2022-07-04T04:09:20;16.74;51.92
73149;SHT30;61346;48.930;2.266;2022-07-04T04:11:46;16.74;52.15
73149;SHT30;61346;48.930;2.266;2022-07-04T04:14:11;16.77;52.07
73149;SHT30;61346;48.930;2.266;2022-07-04T04:16:38;16.74;52.26
73149;SHT30;61346;48.930;2.266;2022-07-04T04:19:04;16.71;52.35
73149;SHT30;61346;48.930;2.266;2022-07-04T04:21:29;16.75;52.32
73149;SHT30;61346;48.930;2.266;2022-07-04T04:23:55;16.74;52.19
73149;SHT30;61346;48.930;2.266;2022-07-04T04:26:20;16.70;52.14
73149;SHT30;61346;48.930;2.266;2022-07-04T04:28:45;16.68;52.28
73149;SHT30;61346;48.930;2.266;2022-07-04T04:31:11;16.67;52.47
73149;SHT30;61346;48.930;2.266;2022-07-04T04:33:36;16.66;52.77
73149;SHT30;61346;48.930;2.266;2022-07-04T04:36:02;16.67;52.95
73149;SHT30;61346;48.930;2.266;2022-07-04T04:38:27;16.67;52.95
73149;SHT30;61346;48.930;2.266;2022-07-04T04:40:53;16.70;52.94
73149;SHT30;61346;48.930;2.266;2022-07-04T04:43:18;16.68;53.23
73149;SHT30;61346;48.930;2.266;2022-07-04T04:45:44;16.68;53.14
73149;SHT30;61346;48.930;2.266;2022-07-04T04:48:09;16.68;53.21
73149;SHT30;61346;48.930;2.266;2022-07-04T04:50:35;16.66;53.09
73149;SHT30;61346;48.930;2.266;2022-07-04T04:53:01;16.64;53.05
73149;SHT30;61346;48.930;2.266;2022-07-04T04:55:26;16.66;53.30
73149;SHT30;61346;48.930;2.266;2022-07-04T04:57:52;16.64;53.83
73149;SHT30;61346;48.930;2.266;2022-07-04T05:00:17;16.66;53.66
73149;SHT30;61346;48.930;2.266;2022-07-04T05:02:42;16.68;53.71
73149;SHT30;61346;48.930;2.266;2022-07-04T05:05:08;16.70;53.44
73149;SHT30;61346;48.930;2.266;2022-07-04T05:07:34;16.70;53.56
73149;SHT30;61346;48.930;2.266;2022-07-04T05:09:59;16.70;53.62
73149;SHT30;61346;48.930;2.266;2022-07-04T05:12:25;16.73;53.72
73149;SHT30;61346;48.930;2.266;2022-07-04T05:14:52;16.74;53.79
73149;SHT30;61346;48.930;2.266;2022-07-04T05:17:17;16.80;53.74
73149;SHT30;61346;48.930;2.266;2022-07-04T05:19:43;16.84;53.71
73149;SHT30;61346;48.930;2.266;2022-07-04T05:22:08;16.81;54.01
73149;SHT30;61346;48.930;2.266;2022-07-04T05:24:36;16.85;54.77
73149;SHT30;61346;48.930;2.266;2022-07-04T05:27:05;16.89;54.20
73149;SHT30;61346;48.930;2.266;2022-07-04T05:29:30;16.92;54.24
73149;SHT30;61346;48.930;2.266;2022-07-04T05:31:56;16.96;54.07
73149;SHT30;61346;48.930;2.266;2022-07-04T05:34:21;17.01;54.16
73149;SHT30;61346;48.930;2.266;2022-07-04T05:36:46;17.01;54.36
73149;SHT30;61346;48.930;2.266;2022-07-04T05:39:12;17.05;54.33
73149;SHT30;61346;48.930;2.266;2022-07-04T05:41:37;17.10;54.36
73149;SHT30;61346;48.930;2.266;2022-07-04T05:44:03;17.15;54.41
73149;SHT30;61346;48.930;2.266;2022-07-04T05:46:28;17.19;54.38
73149;SHT30;61346;48.930;2.266;2022-07-04T05:48:53;17.23;54.46
73149;SHT30;61346;48.930;2.266;2022-07-04T05:51:19;17.28;54.50
73149;SHT30;61346;48.930;2.266;2022-07-04T05:53:44;17.28;54.39
73149;SHT30;61346;48.930;2.266;2022-07-04T05:56:10;17.32;54.48
73149;SHT30;61346;48.930;2.266;2022-07-04T05:58:35;17.29;54.47
73149;SHT30;61346;48.930;2.266;2022-07-04T06:01:00;17.32;54.58
73149;SHT30;61346;48.930;2.266;2022-07-04T06:03:26;17.40;54.80
73149;SHT30;61346;48.930;2.266;2022-07-04T06:05:51;17.42;54.66
73149;SHT30;61346;48.930;2.266;2022-07-04T06:08:18;17.45;54.63
73149;SHT30;61346;48.930;2.266;2022-07-04T06:10:44;17.49;54.84
73149;SHT30;61346;48.930;2.266;2022-07-04T06:13:09;17.53;55.44
73149;SHT30;61346;48.930;2.266;2022-07-04T06:16:22;17.63;54.90
73149;SHT30;61346;48.930;2.266;2022-07-04T06:19:36;17.71;55.09
73149;SHT30;61346;48.930;2.266;2022-07-04T06:26:17;17.81;54.93
73149;SHT30;61346;48.930;2.266;2022-07-04T06:43:50;18.02;55.27
73149;SHT30;61346;48.930;2.266;2022-07-04T06:46:26;18.08;55.42
73149;SHT30;61346;48.930;2.266;2022-07-04T06:49:17;18.16;55.23
73149;SHT30;61346;48.930;2.266;2022-07-04T06:52:14;18.25;55.30
73149;SHT30;61346;48.930;2.266;2022-07-04T06:54:57;18.29;55.24
73149;SHT30;61346;48.930;2.266;2022-07-04T07:43:21;19.19;54.68
73149;SHT30;61346;48.930;2.266;2022-07-04T07:45:47;19.26;54.72
73149;SHT30;61346;48.930;2.266;2022-07-04T07:48:15;19.32;54.52
73149;SHT30;61346;48.930;2.266;2022-07-04T07:50:40;19.41;54.47
73149;SHT30;61346;48.930;2.266;2022-07-04T07:53:08;19.45;54.47
73149;SHT30;61346;48.930;2.266;2022-07-04T07:55:34;19.46;54.27
73149;SHT30;61346;48.930;2.266;2022-07-04T07:57:59;19.48;54.20
73149;SHT30;61346;48.930;2.266;2022-07-04T08:00:26;19.53;54.12
73149;SHT30;61346;48.930;2.266;2022-07-04T08:02:51;19.56;54.01
73149;SHT30;61346;48.930;2.266;2022-07-04T08:05:35;19.62;53.95
73149;SHT30;61346;48.930;2.266;2022-07-04T08:08:02;19.66;54.23
73149;SHT30;61346;48.930;2.266;2022-07-04T08:10:27;19.72;53.73
73149;SHT30;61346;48.930;2.266;2022-07-04T08:12:52;19.76;53.68
73149;SHT30;61346;48.930;2.266;2022-07-04T08:15:18;19.81;53.57
73149;SHT30;61346;48.930;2.266;2022-07-04T08:17:43;19.89;53.37
73149;SHT30;61346;48.930;2.266;2022-07-04T08:20:10;19.94;53.41
73149;SHT30;61346;48.930;2.266;2022-07-04T08:22:35;20.01;53.13
73149;SHT30;61346;48.930;2.266;2022-07-04T08:25:01;20.06;52.94
73149;SHT30;61346;48.930;2.266;2022-07-04T08:27:27;20.14;52.66
73149;SHT30;61346;48.930;2.266;2022-07-04T08:29:52;20.21;52.38
73149;SHT30;61346;48.930;2.266;2022-07-04T08:32:18;20.25;52.15
73149;SHT30;61346;48.930;2.266;2022-07-04T08:34:43;20.27;52.07
73149;SHT30;61346;48.930;2.266;2022-07-04T08:37:09;20.34;51.98
73149;SHT30;61346;48.930;2.266;2022-07-04T08:39:35;20.39;51.83
73149;SHT30;61346;48.930;2.266;2022-07-04T08:42:10;20.46;51.50
73149;SHT30;61346;48.930;2.266;2022-07-04T08:44:39;20.51;51.41
73149;SHT30;61346;48.930;2.266;2022-07-04T08:47:19;20.57;51.31
73149;SHT30;61346;48.930;2.266;2022-07-04T08:50:08;20.63;51.16
73149;SHT30;61346;48.930;2.266;2022-07-04T08:52:40;20.71;50.96
73149;SHT30;61346;48.930;2.266;2022-07-04T08:55:08;20.75;51.05
73149;SHT30;61346;48.930;2.266;2022-07-04T08:57:52;20.86;50.85
73149;SHT30;61346;48.930;2.266;2022-07-04T09:00:37;20.93;50.73
73149;SHT30;61346;48.930;2.266;2022-07-04T09:03:04;20.97;50.69
73149;SHT30;61346;48.930;2.266;2022-07-04T09:05:30;21.06;50.53
73149;SHT30;61346;48.930;2.266;2022-07-04T09:07:59;21.11;50.35
73149;SHT30;61346;48.930;2.266;2022-07-04T09:10:25;21.20;50.18
73149;SHT30;61346;48.930;2.266;2022-07-04T09:12:51;21.26;49.95
73149;SHT30;61346;48.930;2.266;2022-07-04T09:15:17;21.31;49.94
73149;SHT30;61346;48.930;2.266;2022-07-04T09:17:43;21.41;49.73
73149;SHT30;61346;48.930;2.266;2022-07-04T09:20:18;21.48;49.53
73149;SHT30;61346;48.930;2.266;2022-07-04T09:22:45;21.55;49.46
73149;SHT30;61346;48.930;2.266;2022-07-04T09:25:11;21.61;49.32
73149;SHT30;61346;48.930;2.266;2022-07-04T09:27:44;21.68;49.18
73149;SHT30;61346;48.930;2.266;2022-07-04T09:30:12;21.75;49.10
73149;SHT30;61346;48.930;2.266;2022-07-04T09:32:39;21.82;49.01
73149;SHT30;61346;48.930;2.266;2022-07-04T09:35:12;21.92;48.90
73149;SHT30;61346;48.930;2.266;2022-07-04T09:37:40;21.97;48.82
73149;SHT30;61346;48.930;2.266;2022-07-04T09:40:24;22.07;48.67
73149;SHT30;61346;48.930;2.266;2022-07-04T09:42:50;22.18;48.45
73149;SHT30;61346;48.930;2.266;2022-07-04T09:45:16;22.30;48.38
73149;SHT30;61346;48.930;2.266;2022-07-04T09:47:45;22.44;48.27
73149;SHT30;61346;48.930;2.266;2022-07-04T09:50:15;22.51;48.13
73149;SHT30;61346;48.930;2.266;2022-07-04T09:52:57;22.62;47.91
73149;SHT30;61346;48.930;2.266;2022-07-04T09:55:38;22.69;47.09
73149;SHT30;61346;48.930;2.266;2022-07-04T09:58:06;22.78;47.38
73149;SHT30;61346;48.930;2.266;2022-07-04T10:00:42;22.86;47.30
73149;SHT30;61346;48.930;2.266;2022-07-04T10:03:24;22.95;46.88
73149;SHT30;61346;48.930;2.266;2022-07-04T10:06:05;22.99;46.73
73149;SHT30;61346;48.930;2.266;2022-07-04T10:08:31;23.03;46.60
73149;SHT30;61346;48.930;2.266;2022-07-04T10:10:58;23.07;46.53
73149;SHT30;61346;48.930;2.266;2022-07-04T10:13:25;23.07;46.40
73149;SHT30;61346;48.930;2.266;2022-07-04T10:15:50;23.12;46.33
73149;SHT30;61346;48.930;2.266;2022-07-04T10:18:21;23.20;46.16
73149;SHT30;61346;48.930;2.266;2022-07-04T10:20:48;23.28;46.18
73149;SHT30;61346;48.930;2.266;2022-07-04T10:23:18;23.41;45.76
73149;SHT30;61346;48.930;2.266;2022-07-04T10:25:51;23.53;45.89
73149;SHT30;61346;48.930;2.266;2022-07-04T10:28:42;23.61;45.58
73149;SHT30;61346;48.930;2.266;2022-07-04T10:37:25;23.88;44.98
73149;SHT30;61346;48.930;2.266;2022-07-04T10:44:05;24.10;44.45
73149;SHT30;61346;48.930;2.266;2022-07-04T10:46:58;24.22;44.32
73149;SHT30;61346;48.930;2.266;2022-07-04T10:49:51;24.32;44.23
73149;SHT30;61346;48.930;2.266;2022-07-04T11:05:26;24.78;43.55
73149;SHT30;61346;48.930;2.266;2022-07-04T11:08:03;24.87;43.36
73149;SHT30;61346;48.930;2.266;2022-07-04T11:16:56;25.08;42.76
73149;SHT30;61346;48.930;2.266;2022-07-04T11:19:38;25.12;42.75
73149;SHT30;61346;48.930;2.266;2022-07-04T11:22:08;25.19;42.57
73149;SHT30;61346;48.930;2.266;2022-07-04T11:42:07;25.85;41.65
73149;SHT30;61346;48.930;2.266;2022-07-04T11:55:43;26.12;41.07
73149;SHT30;61346;48.930;2.266;2022-07-04T11:58:53;26.24;40.94
73149;SHT30;61346;48.930;2.266;2022-07-04T12:05:37;26.45;40.38
73149;SHT30;61346;48.930;2.266;2022-07-04T12:12:04;26.74;39.80
73149;SHT30;61346;48.930;2.266;2022-07-04T12:17:27;28.24;39.12
73149;SHT30;61346;48.930;2.266;2022-07-04T12:22:58;28.97;37.76
73149;SHT30;61346;48.930;2.266;2022-07-04T12:28:46;29.08;37.88
73149;SHT30;61346;48.930;2.266;2022-07-04T12:34:42;29.69;37.33
73149;SHT30;61346;48.930;2.266;2022-07-04T12:38:13;29.87;37.05
73149;SHT30;61346;48.930;2.266;2022-07-04T12:41:13;29.78;36.74
73149;SHT30;61346;48.930;2.266;2022-07-04T12:47:32;29.95;36.07
73149;SHT30;61346;48.930;2.266;2022-07-04T12:50:08;29.92;35.92
73149;SHT30;61346;48.930;2.266;2022-07-04T12:52:37;29.85;35.52
73149;SHT30;61346;48.930;2.266;2022-07-04T12:55:20;29.76;35.42
73149;SHT30;61346;48.930;2.266;2022-07-04T12:57:53;29.70;35.41
73149;SHT30;61346;48.930;2.266;2022-07-04T13:00:19;29.65;35.68
73149;SHT30;61346;48.930;2.266;2022-07-04T13:02:49;29.72;35.41
73149;SHT30;61346;48.930;2.266;2022-07-04T13:05:15;29.85;35.17
73149;SHT30;61346;48.930;2.266;2022-07-04T13:08:09;29.83;35.14
73149;SHT30;61346;48.930;2.266;2022-07-04T13:10:42;29.65;35.03
73149;SHT30;61346;48.930;2.266;2022-07-04T13:13:16;29.57;34.42
73149;SHT30;61346;48.930;2.266;2022-07-04T13:15:44;29.47;34.92
73149;SHT30;61346;48.930;2.266;2022-07-04T13:18:10;29.42;34.96
73149;SHT30;61346;48.930;2.266;2022-07-04T13:20:55;29.37;34.68
73149;SHT30;61346;48.930;2.266;2022-07-04T13:23:31;29.42;34.74
73149;SHT30;61346;48.930;2.266;2022-07-04T13:25:59;29.63;34.47
73149;SHT30;61346;48.930;2.266;2022-07-04T13:28:24;29.55;34.61
73149;SHT30;61346;48.930;2.266;2022-07-04T13:30:50;29.51;34.63
73149;SHT30;61346;48.930;2.266;2022-07-04T13:33:15;29.45;34.57
73149;SHT30;61346;48.930;2.266;2022-07-04T13:39:10;29.52;34.59
73149;SHT30;61346;48.930;2.266;2022-07-04T13:41:36;29.54;34.67
73149;SHT30;61346;48.930;2.266;2022-07-04T13:44:03;29.61;34.32
73149;SHT30;61346;48.930;2.266;2022-07-04T13:46:29;29.59;33.27
73149;SHT30;61346;48.930;2.266;2022-07-04T13:48:54;29.57;33.84
73149;SHT30;61346;48.930;2.266;2022-07-04T13:51:20;29.65;33.74
73149;SHT30;61346;48.930;2.266;2022-07-04T13:53:45;29.87;33.27
73149;SHT30;61346;48.930;2.266;2022-07-04T13:56:11;30.85;33.47
73149;SHT30;61346;48.930;2.266;2022-07-04T13:58:37;31.60;32.77
73149;SHT30;61346;48.930;2.266;2022-07-04T14:01:03;32.19;32.17
73149;SHT30;61346;48.930;2.266;2022-07-04T14:03:28;33.28;31.17
73149;SHT30;61346;48.930;2.266;2022-07-04T14:05:54;33.90;30.62
73149;SHT30;61346;48.930;2.266;2022-07-04T14:08:19;33.98;29.78
73149;SHT30;61346;48.930;2.266;2022-07-04T14:10:45;33.55;29.97
73149;SHT30;61346;48.930;2.266;2022-07-04T14:13:10;33.09;30.60
73149;SHT30;61346;48.930;2.266;2022-07-04T14:15:43;32.71;30.79
73149;SHT30;61346;48.930;2.266;2022-07-04T14:18:08;32.44;31.03
73149;SHT30;61346;48.930;2.266;2022-07-04T14:20:39;32.36;31.13
73149;SHT30;61346;48.930;2.266;2022-07-04T14:23:22;32.25;31.26
73149;SHT30;61346;48.930;2.266;2022-07-04T14:26:21;32.71;31.54
73149;SHT30;61346;48.930;2.266;2022-07-04T14:28:55;34.55;30.89
73149;SHT30;61346;48.930;2.266;2022-07-04T14:31:34;37.67;28.21
73149;SHT30;61346;48.930;2.266;2022-07-04T14:33:59;40.18;27.09
73149;SHT30;61346;48.930;2.266;2022-07-04T14:36:27;42.36;25.53
73149;SHT30;61346;48.930;2.266;2022-07-04T14:38:55;44.29;24.63
73149;SHT30;61346;48.930;2.266;2022-07-04T14:41:23;45.82;21.78
73149;SHT30;61346;48.930;2.266;2022-07-04T14:43:52;46.89;21.91
73149;SHT30;61346;48.930;2.266;2022-07-04T14:46:22;48.04;20.26
73149;SHT30;61346;48.930;2.266;2022-07-04T14:48:47;48.84;16.96
73149;SHT30;61346;48.930;2.266;2022-07-04T14:51:19;49.42;17.20
73149;SHT30;61346;48.930;2.266;2022-07-04T14:53:51;49.86;17.28
73149;SHT30;61346;48.930;2.266;2022-07-04T14:56:21;50.42;17.95
73149;SHT30;61346;48.930;2.266;2022-07-04T14:58:49;51.05;18.14
73149;SHT30;61346;48.930;2.266;2022-07-04T15:01:14;51.80;18.48
73149;SHT30;61346;48.930;2.266;2022-07-04T15:03:40;52.59;17.65
73149;SHT30;61346;48.930;2.266;2022-07-04T15:06:20;53.08;16.46
73149;SHT30;61346;48.930;2.266;2022-07-04T15:08:51;53.54;16.70
73149;SHT30;61346;48.930;2.266;2022-07-04T15:11:47;54.12;16.60
73149;SHT30;61346;48.930;2.266;2022-07-04T15:14:18;54.60;15.75
73149;SHT30;61346;48.930;2.266;2022-07-04T15:16:43;54.89;15.49
73149;SHT30;61346;48.930;2.266;2022-07-04T15:22:27;55.33;15.31
73149;SHT30;61346;48.930;2.266;2022-07-04T15:25:23;55.46;15.46
73149;SHT30;61346;48.930;2.266;2022-07-04T15:31:18;56.36;13.56
73149;SHT30;61346;48.930;2.266;2022-07-04T15:33:51;56.62;14.14
73149;SHT30;61346;48.930;2.266;2022-07-04T15:36:24;56.38;14.13
73149;SHT30;61346;48.930;2.266;2022-07-04T15:39:12;56.19;13.98
73149;SHT30;61346;48.930;2.266;2022-07-04T15:41:41;56.40;14.10
73149;SHT30;61346;48.930;2.266;2022-07-04T15:44:07;56.62;14.02
73149;SHT30;61346;48.930;2.266;2022-07-04T15:46:33;56.67;13.71
73149;SHT30;61346;48.930;2.266;2022-07-04T15:49:30;56.56;14.00
73149;SHT30;61346;48.930;2.266;2022-07-04T15:52:26;56.76;14.13
73149;SHT30;61346;48.930;2.266;2022-07-04T15:55:09;57.10;12.81
73149;SHT30;61346;48.930;2.266;2022-07-04T15:58:16;57.14;12.27
73149;SHT30;61346;48.930;2.266;2022-07-04T16:01:03;56.87;13.25
73149;SHT30;61346;48.930;2.266;2022-07-04T16:03:35;56.28;13.39
73149;SHT30;61346;48.930;2.266;2022-07-04T16:06:21;56.05;13.12
73149;SHT30;61346;48.930;2.266;2022-07-04T16:08:58;56.12;13.16
73149;SHT30;61346;48.930;2.266;2022-07-04T16:11:55;56.28;13.65
73149;SHT30;61346;48.930;2.266;2022-07-04T16:14:30;56.38;12.66
73149;SHT30;61346;48.930;2.266;2022-07-04T16:16:55;56.36;13.97
73149;SHT30;61346;48.930;2.266;2022-07-04T16:19:23;56.46;14.25
73149;SHT30;61346;48.930;2.266;2022-07-04T16:21:51;56.58;14.30
73149;SHT30;61346;48.930;2.266;2022-07-04T16:24:32;56.53;13.08
73149;SHT30;61346;48.930;2.266;2022-07-04T16:27:00;56.15;13.46
73149;SHT30;61346;48.930;2.266;2022-07-04T16:29:29;55.79;13.44
73149;SHT30;61346;48.930;2.266;2022-07-04T16:32:05;55.23;13.22
73149;SHT30;61346;48.930;2.266;2022-07-04T16:34:38;55.06;13.68
73149;SHT30;61346;48.930;2.266;2022-07-04T16:37:17;54.81;13.35
73149;SHT30;61346;48.930;2.266;2022-07-04T16:40:06;54.78;13.83
73149;SHT30;61346;48.930;2.266;2022-07-04T16:42:32;54.87;13.76
73149;SHT30;61346;48.930;2.266;2022-07-04T16:45:00;54.87;13.86
73149;SHT30;61346;48.930;2.266;2022-07-04T16:47:37;54.87;13.86
73149;SHT30;61346;48.930;2.266;2022-07-04T16:50:23;54.81;14.10
73149;SHT30;61346;48.930;2.266;2022-07-04T16:52:56;54.53;12.93
73149;SHT30;61346;48.930;2.266;2022-07-04T16:55:27;53.66;13.25
73149;SHT30;61346;48.930;2.266;2022-07-04T16:57:52;52.66;13.82
73149;SHT30;61346;48.930;2.266;2022-07-04T17:00:18;52.31;13.81
73149;SHT30;61346;48.930;2.266;2022-07-04T17:02:44;52.01;13.88
73149;SHT30;61346;48.930;2.266;2022-07-04T17:05:12;51.59;14.22
73149;SHT30;61346;48.930;2.266;2022-07-04T17:07:44;51.50;14.21
73149;SHT30;61346;48.930;2.266;2022-07-04T17:10:16;51.21;14.56
73149;SHT30;61346;48.930;2.266;2022-07-04T17:13:05;50.99;14.73
73149;SHT30;61346;48.930;2.266;2022-07-04T17:15:43;50.99;14.97
73149;SHT30;61346;48.930;2.266;2022-07-04T17:18:09;50.99;14.87
73149;SHT30;61346;48.930;2.266;2022-07-04T17:20:37;50.71;14.73
73149;SHT30;61346;48.930;2.266;2022-07-04T17:23:07;50.30;14.94
73149;SHT30;61346;48.930;2.266;2022-07-04T17:25:33;49.96;14.90
73149;SHT30;61346;48.930;2.266;2022-07-04T17:27:58;49.62;14.84
73149;SHT30;61346;48.930;2.266;2022-07-04T17:30:24;49.18;15.11
73149;SHT30;61346;48.930;2.266;2022-07-04T17:32:53;48.91;15.46
73149;SHT30;61346;48.930;2.266;2022-07-04T17:35:34;48.69;15.22
73149;SHT30;61346;48.930;2.266;2022-07-04T17:41:46;47.69;15.55
73149;SHT30;61346;48.930;2.266;2022-07-04T17:44:21;47.25;15.63
73149;SHT30;61346;48.930;2.266;2022-07-04T17:49:55;46.48;16.09
73149;SHT30;61346;48.930;2.266;2022-07-04T17:52:45;46.36;16.26
73149;SHT30;61346;48.930;2.266;2022-07-04T17:55:09;46.13;16.32
73149;SHT30;61346;48.930;2.266;2022-07-04T17:57:35;45.90;16.45
73149;SHT30;61346;48.930;2.266;2022-07-04T18:00:02;45.75;16.56
73149;SHT30;61346;48.930;2.266;2022-07-04T18:02:27;45.51;16.71
73149;SHT30;61346;48.930;2.266;2022-07-04T18:04:53;45.00;16.67
73149;SHT30;61346;48.930;2.266;2022-07-04T18:07:18;44.32;16.79
73149;SHT30;61346;48.930;2.266;2022-07-04T18:09:44;43.85;16.97
73149;SHT30;61346;48.930;2.266;2022-07-04T18:12:10;43.39;17.23
73149;SHT30;61346;48.930;2.266;2022-07-04T18:14:35;42.83;17.45
73149;SHT30;61346;48.930;2.266;2022-07-04T18:17:01;42.37;17.68
73149;SHT30;61346;48.930;2.266;2022-07-04T18:19:28;42.11;18.00
73149;SHT30;61346;48.930;2.266;2022-07-04T18:21:53;41.96;18.09
73149;SHT30;61346;48.930;2.266;2022-07-04T18:24:19;41.77;18.17
73149;SHT30;61346;48.930;2.266;2022-07-04T18:26:44;41.43;18.44
73149;SHT30;61346;48.930;2.266;2022-07-04T18:29:10;41.05;18.75
73149;SHT30;61346;48.930;2.266;2022-07-04T18:31:35;40.68;18.73